Time;durP1;ratioP1;P1;durP2;ratioP2;P2;SDS_P1;SDS_P2;PMS_P1;PMS_P2;Temp;Humidity;BMP_temperature;BMP_pressure;BME280_temperature;BME280_humidity;BME280_pressure;Samples;Min_cycle;Max_cycle;Signal;HPM_P1;HPM_P2
2024/01/06 00:00:50;;;;;;;4.13;1.95;;;;;;;5.48;87.64;97459.91;5035330;28;20033;-75
2024/01/06 00:03:15;;;;;;;6.72;2.08;;;;;;;5.52;87.02;97457.56;5029203;28;20041;-75
2024/01/06 00:05:41;;;;;;;7.82;3.20;;;;;;;5.51;86.71;97459.38;5029861;28;20079;-75
2024/01/06 00:08:06;;;;;;;4.22;2.22;;;;;;;5.47;86.62;97468.88;5037773;28;20029;-76
2024/01/06 00:10:32;;;;;;;7.75;2.55;;;;;;;5.51;86.76;97459.38;5038416;28;20088;-76
2024/01/06 00:12:57;;;;;;;9.85;1.98;;;;;;;5.49;87.18;97461.50;5036740;28;20033;-75
2024/01/06 00:15:23;;;;;;;8.45;1.77;;;;;;;5.43;86.98;97465.13;5036573;28;20112;-75
2024/01/06 00:17:48;;;;;;;4.13;1.67;;;;;;;5.52;87.56;97454.91;5031647;28;20045;-76
2024/01/06 00:20:14;;;;;;;10.07;2.80;;;;;;;5.49;86.86;97456.19;5027773;28;20035;-76
2024/01/06 00:22:41;;;;;;;10.25;2.72;;;;;;;5.58;86.97;97462.66;5033763;28;20037;-75
2024/01/06 00:25:07;;;;;;;4.28;2.10;;;;;;;5.62;86.98;97461.09;5033736;28;20032;-75
2024/01/06 00:27:32;;;;;;;4.85;2.13;;;;;;;5.53;87.36;97457.28;5026512;28;20026;-75
2024/01/06 00:29:57;;;;;;;3.88;2.40;;;;;;;5.53;86.64;97465.22;5031398;28;20067;-75
2024/01/06 00:32:23;;;;;;;4.22;2.13;;;;;;;5.50;87.33;97465.75;5029984;28;20029;-75
2024/01/06 00:34:48;;;;;;;5.28;2.00;;;;;;;5.42;87.10;97460.88;5030568;28;20049;-75
2024/01/06 00:37:13;;;;;;;6.88;2.35;;;;;;;5.47;86.99;97474.19;5033462;28;20037;-75
2024/01/06 00:39:39;;;;;;;5.18;1.92;;;;;;;5.45;86.82;97470.97;5032268;28;20385;-75
2024/01/06 00:42:04;;;;;;;4.43;2.20;;;;;;;5.47;87.28;97470.72;5034266;28;21033;-75
2024/01/06 00:44:29;;;;;;;6.97;2.67;;;;;;;5.45;87.28;97472.81;5027078;28;20584;-75
2024/01/06 00:46:55;;;;;;;4.90;2.00;;;;;;;5.25;86.97;97476.03;5031818;28;20107;-75
2024/01/06 00:49:20;;;;;;;4.72;1.60;;;;;;;5.39;87.10;97482.56;5030745;28;20079;-74
2024/01/06 00:51:46;;;;;;;6.55;2.55;;;;;;;5.24;87.07;97475.25;5027706;28;20494;-75
2024/01/06 00:54:12;;;;;;;6.53;2.53;;;;;;;5.13;86.45;97480.69;5017148;28;20565;-75
2024/01/06 00:56:37;;;;;;;6.97;1.77;;;;;;;5.29;87.28;97485.09;5024883;28;20502;-75
2024/01/06 00:59:04;;;;;;;4.28;2.67;;;;;;;5.10;87.62;97481.16;5026200;28;20124;-75
2024/01/06 01:01:29;;;;;;;8.57;2.63;;;;;;;5.12;86.53;97487.00;5031504;28;20029;-75
2024/01/06 01:03:54;;;;;;;8.57;2.30;;;;;;;5.27;87.69;97487.19;5028714;28;20120;-75
2024/01/06 01:06:20;;;;;;;5.35;2.95;;;;;;;5.06;87.37;97486.16;5029928;28;20061;-76
2024/01/06 01:08:45;;;;;;;3.90;2.22;;;;;;;5.29;87.89;97491.19;5031839;28;20029;-76
2024/01/06 01:11:11;;;;;;;2.67;1.80;;;;;;;5.26;87.28;97496.19;5030214;28;20029;-75
2024/01/06 01:13:36;;;;;;;10.55;2.20;;;;;;;5.12;86.43;97497.59;5029857;28;20041;-76
2024/01/06 01:16:02;;;;;;;4.15;2.47;;;;;;;5.23;87.21;97508.03;5024016;28;20096;-76
2024/01/06 01:18:28;;;;;;;6.07;2.20;;;;;;;5.30;87.23;97503.38;5029230;28;20044;-75
2024/01/06 01:20:53;;;;;;;3.22;2.05;;;;;;;5.29;87.80;97508.88;5030070;28;20037;-76
2024/01/06 01:23:19;;;;;;;4.47;2.58;;;;;;;5.25;87.46;97513.88;5025644;28;20029;-75
2024/01/06 01:25:44;;;;;;;2.30;2.03;;;;;;;5.24;87.28;97519.44;5028059;28;20482;-75
2024/01/06 01:28:09;;;;;;;8.40;2.30;;;;;;;5.13;86.97;97509.78;5027961;28;20112;-75
2024/01/06 01:30:35;;;;;;;6.07;1.95;;;;;;;5.21;87.09;97518.06;5026144;28;20490;-76
2024/01/06 01:33:00;;;;;;;10.75;2.25;;;;;;;5.18;87.31;97512.47;5025549;28;20026;-75
2024/01/06 01:35:25;;;;;;;9.63;2.55;;;;;;;5.05;86.68;97507.53;5030771;28;20416;-76
2024/01/06 01:37:51;;;;;;;4.35;1.83;;;;;;;5.10;86.85;97511.06;5028853;28;20044;-76
2024/01/06 01:40:16;;;;;;;3.45;1.60;;;;;;;5.10;87.17;97508.41;5025787;28;21632;-76
2024/01/06 01:42:44;;;;;;;4.53;2.17;;;;;;;5.09;87.14;97509.44;5028810;28;20557;-76
2024/01/06 01:45:10;;;;;;;4.85;2.00;;;;;;;5.04;86.42;97512.06;5029743;28;20026;-76
2024/01/06 01:47:37;;;;;;;14.43;2.17;;;;;;;4.89;86.08;97522.41;5030920;28;20087;-76
2024/01/06 01:50:03;;;;;;;5.88;2.45;;;;;;;5.01;87.58;97523.09;5024388;28;20033;-76
2024/01/06 01:52:30;;;;;;;3.15;1.70;;;;;;;5.00;87.18;97534.72;5026533;28;20033;-78
2024/01/06 01:54:56;;;;;;;2.72;1.52;;;;;;;5.05;87.36;97528.69;5026060;28;20113;-77
2024/01/06 01:57:23;;;;;;;5.05;2.50;;;;;;;4.96;87.47;97530.16;5031869;28;20512;-77
2024/01/06 01:59:49;;;;;;;7.90;2.35;;;;;;;5.02;87.58;97545.06;5023647;28;20037;-78
2024/01/06 02:02:15;;;;;;;6.60;2.40;;;;;;;4.97;86.80;97532.56;5023634;28;20049;-76
2024/01/06 02:04:41;;;;;;;3.75;2.00;;;;;;;5.07;87.21;97530.06;5025768;28;20029;-76
2024/01/06 02:07:06;;;;;;;5.85;2.45;;;;;;;5.05;86.22;97533.97;5025269;28;20375;-77
2024/01/06 02:09:32;;;;;;;4.30;2.35;;;;;;;4.97;87.15;97542.34;5025142;28;20433;-78
2024/01/06 02:11:58;;;;;;;4.28;1.90;;;;;;;4.98;86.82;97536.03;5026331;28;20060;-78
2024/01/06 02:14:23;;;;;;;2.70;2.08;;;;;;;5.03;86.78;97530.78;5029056;28;20103;-76
2024/01/06 02:16:48;;;;;;;7.85;2.80;;;;;;;4.96;86.89;97527.50;5031015;28;20029;-76
2024/01/06 02:19:17;;;;;;;4.60;2.45;;;;;;;5.00;86.86;97526.00;5030881;28;20049;-78
2024/01/06 02:21:44;;;;;;;3.40;2.08;;;;;;;5.04;86.92;97537.69;5028588;28;20025;-76
2024/01/06 02:24:09;;;;;;;10.43;2.78;;;;;;;4.96;86.28;97538.09;5027060;28;21840;-77
2024/01/06 02:26:35;;;;;;;3.90;2.13;;;;;;;4.95;86.89;97541.78;5024583;28;20168;-77
2024/01/06 02:29:01;;;;;;;6.55;2.00;;;;;;;4.88;86.24;97549.09;5025440;28;20104;-76
2024/01/06 02:31:27;;;;;;;6.22;2.30;;;;;;;4.78;87.12;97548.97;5025477;28;20029;-76
2024/01/06 02:33:52;;;;;;;7.50;2.13;;;;;;;4.95;86.77;97555.81;5027701;28;20494;-77
2024/01/06 02:36:17;;;;;;;9.77;3.35;;;;;;;4.89;87.25;97548.84;5026575;28;20096;-77
2024/01/06 02:38:43;;;;;;;5.68;2.35;;;;;;;4.99;86.60;97549.00;5023273;28;20091;-77
2024/01/06 02:41:08;;;;;;;2.30;2.05;;;;;;;5.06;87.46;97556.75;5023358;28;20103;-77
2024/01/06 02:43:33;;;;;;;7.03;2.72;;;;;;;5.02;86.85;97559.06;5024972;28;20032;-78
2024/01/06 02:45:59;;;;;;;4.50;2.03;;;;;;;5.00;87.38;97552.44;5023971;28;20043;-76
2024/01/06 02:48:24;;;;;;;9.32;2.58;;;;;;;4.98;86.59;97560.59;5023840;28;20025;-74
2024/01/06 02:50:49;;;;;;;4.90;2.00;;;;;;;4.89;87.50;97551.47;5022333;28;20769;-76
2024/01/06 02:53:15;;;;;;;5.63;2.40;;;;;;;4.95;87.21;97552.38;5022504;28;20040;-77
2024/01/06 02:55:40;;;;;;;6.88;3.70;;;;;;;4.92;86.58;97561.56;5027522;28;20056;-77
2024/01/06 02:58:06;;;;;;;5.65;2.47;;;;;;;4.96;86.45;97557.41;5026033;28;20033;-76
2024/01/06 03:00:31;;;;;;;7.43;2.47;;;;;;;4.98;86.89;97565.13;5023653;28;20034;-75
2024/01/06 03:02:57;;;;;;;4.75;2.40;;;;;;;5.04;86.70;97574.69;5025561;28;20035;-75
2024/01/06 03:05:22;;;;;;;6.22;2.88;;;;;;;5.02;86.49;97572.28;5021347;28;20104;-76
2024/01/06 03:07:47;;;;;;;7.38;2.67;;;;;;;5.09;87.29;97570.28;5024264;28;20029;-75
2024/01/06 03:10:13;;;;;;;4.47;2.22;;;;;;;5.12;87.05;97574.28;5022248;28;20037;-75
2024/01/06 03:12:39;;;;;;;7.20;2.30;;;;;;;5.20;86.74;97577.28;5025732;28;20033;-76
2024/01/06 03:15:05;;;;;;;5.28;2.35;;;;;;;5.26;86.13;97578.94;5027985;28;20037;-76
2024/01/06 03:17:30;;;;;;;2.78;1.75;;;;;;;5.32;86.14;97578.00;5026894;28;20039;-76
2024/01/06 03:19:57;;;;;;;6.82;2.67;;;;;;;5.18;85.81;97579.38;5023762;28;20026;-75
2024/01/06 03:22:22;;;;;;;4.05;2.67;;;;;;;4.97;87.07;97576.72;5027370;28;20029;-74
2024/01/06 03:24:48;;;;;;;8.52;2.38;;;;;;;5.14;87.33;97580.91;5024390;28;20052;-75
2024/01/06 03:27:13;;;;;;;4.22;2.47;;;;;;;4.92;86.73;97587.22;5025975;28;20112;-75
2024/01/06 03:29:39;;;;;;;9.57;2.67;;;;;;;5.20;87.37;97587.88;5024906;28;20025;-76
2024/01/06 03:32:05;;;;;;;3.45;2.40;;;;;;;5.24;86.39;97594.28;5021626;28;20041;-76
2024/01/06 03:34:30;;;;;;;2.88;2.20;;;;;;;5.30;86.52;97595.16;5021430;28;20037;-76
2024/01/06 03:36:55;;;;;;;6.47;2.30;;;;;;;5.41;86.50;97598.72;5022272;28;20123;-76
2024/01/06 03:39:21;;;;;;;4.85;2.42;;;;;;;5.47;86.07;97600.38;5021601;28;20087;-77
2024/01/06 03:41:48;;;;;;;4.72;2.30;;;;;;;5.39;85.87;97604.25;5016129;28;20577;-76
2024/01/06 03:44:13;;;;;;;6.28;2.70;;;;;;;5.11;85.83;97607.06;5022206;28;20116;-77
2024/01/06 03:46:38;;;;;;;5.15;2.17;;;;;;;5.30;86.59;97600.44;5025080;28;20129;-77
2024/01/06 03:49:04;;;;;;;4.28;2.13;;;;;;;5.29;86.83;97606.75;5024509;28;20080;-78
2024/01/06 03:51:29;;;;;;;8.63;2.85;;;;;;;5.31;86.71;97615.25;5020891;28;20048;-77
2024/01/06 03:53:54;;;;;;;7.90;2.63;;;;;;;5.39;86.18;97612.19;5022492;28;20044;-76
2024/01/06 03:56:20;;;;;;;6.90;2.22;;;;;;;5.48;86.51;97629.25;5022709;28;20048;-77
2024/01/06 03:58:46;;;;;;;8.13;3.17;;;;;;;5.32;86.70;97624.81;5021562;28;20032;-76
2024/01/06 04:01:11;;;;;;;4.78;2.80;;;;;;;5.39;86.84;97627.28;5019502;28;20099;-76
2024/01/06 04:03:36;;;;;;;5.13;2.38;;;;;;;5.36;87.33;97623.25;5022341;28;20034;-77
2024/01/06 04:06:02;;;;;;;3.70;2.47;;;;;;;5.50;86.79;97626.34;5023693;28;20041;-76
2024/01/06 04:08:27;;;;;;;3.42;2.15;;;;;;;5.29;86.71;97627.94;5019925;28;20108;-78
2024/01/06 04:10:52;;;;;;;4.63;2.33;;;;;;;5.32;87.11;97630.91;5020804;28;20414;-76
2024/01/06 04:13:18;;;;;;;4.80;2.20;;;;;;;5.21;87.46;97629.16;5026285;28;20394;-75
2024/01/06 04:15:43;;;;;;;4.95;2.40;;;;;;;5.26;86.88;97641.66;5025507;28;20029;-76
2024/01/06 04:18:09;;;;;;;6.82;2.28;;;;;;;5.28;86.73;97631.63;5022963;28;20045;-77
2024/01/06 04:20:34;;;;;;;4.72;2.13;;;;;;;5.22;87.16;97629.97;5021761;28;20025;-76
2024/01/06 04:23:00;;;;;;;2.95;2.25;;;;;;;5.21;87.53;97623.88;5021197;28;20088;-76
2024/01/06 04:25:25;;;;;;;3.80;2.55;;;;;;;5.27;87.13;97624.72;5019190;28;20494;-76
2024/01/06 04:27:51;;;;;;;6.88;2.75;;;;;;;5.22;86.98;97632.63;5028182;28;20669;-76
2024/01/06 04:30:16;;;;;;;6.82;2.47;;;;;;;5.22;87.40;97622.03;5030878;28;20453;-77
2024/01/06 04:32:42;;;;;;;5.55;2.17;;;;;;;5.14;88.13;97625.06;5033259;28;20437;-76
2024/01/06 04:35:08;;;;;;;4.32;2.50;;;;;;;5.16;87.44;97626.44;5031842;28;20509;-78
2024/01/06 04:37:34;;;;;;;2.85;2.50;;;;;;;5.25;87.88;97630.28;5028990;28;20533;-76
2024/01/06 04:39:59;;;;;;;3.85;2.70;;;;;;;5.26;87.29;97628.44;5027908;28;20367;-76
2024/01/06 04:42:25;;;;;;;5.40;2.45;;;;;;;5.28;86.82;97639.56;5029424;28;20025;-77
2024/01/06 04:44:50;;;;;;;4.00;3.03;;;;;;;5.23;87.68;97635.00;5030885;28;20034;-76
2024/01/06 04:47:16;;;;;;;7.72;3.15;;;;;;;5.15;87.30;97635.44;5031866;28;20093;-76
2024/01/06 04:49:41;;;;;;;8.65;3.25;;;;;;;5.08;88.23;97634.78;5024773;28;20029;-77
2024/01/06 04:52:07;;;;;;;6.38;3.38;;;;;;;4.84;87.36;97643.16;5028767;28;20048;-76
2024/01/06 04:54:32;;;;;;;8.07;3.40;;;;;;;5.05;87.93;97634.47;5031691;28;20082;-75
2024/01/06 04:56:58;;;;;;;5.50;3.00;;;;;;;5.05;87.24;97640.56;5031854;28;20091;-74
2024/01/06 04:59:23;;;;;;;5.18;3.20;;;;;;;5.40;87.75;97642.88;5030412;28;20052;-74
2024/01/06 05:01:51;;;;;;;8.30;3.22;;;;;;;5.35;87.15;97650.78;5028948;28;20033;-76
2024/01/06 05:04:16;;;;;;;3.03;2.58;;;;;;;5.27;86.70;97640.59;5032409;28;20572;-76
2024/01/06 05:06:41;;;;;;;4.45;2.42;;;;;;;5.21;87.05;97646.88;5029485;28;20025;-76
2024/01/06 05:09:07;;;;;;;5.57;2.28;;;;;;;5.12;88.05;97653.59;5031080;28;20096;-75
2024/01/06 05:11:32;;;;;;;5.60;2.97;;;;;;;5.46;87.72;97663.06;5027368;28;20053;-75
2024/01/06 05:13:57;;;;;;;5.05;2.47;;;;;;;4.93;87.69;97652.28;5030148;28;20045;-75
2024/01/06 05:16:23;;;;;;;6.28;3.40;;;;;;;4.77;88.17;97668.94;5031067;28;20033;-75
2024/01/06 05:18:48;;;;;;;9.35;3.13;;;;;;;5.10;89.25;97661.78;5026871;28;20025;-75
2024/01/06 05:21:13;;;;;;;7.72;2.88;;;;;;;5.29;87.14;97664.97;5024511;28;20367;-75
2024/01/06 05:23:39;;;;;;;8.38;2.85;;;;;;;5.25;87.71;97674.44;5023114;28;20071;-75
2024/01/06 05:26:04;;;;;;;3.38;2.50;;;;;;;5.30;88.45;97670.03;5025179;28;20045;-75
2024/01/06 05:28:30;;;;;;;3.72;2.80;;;;;;;5.30;87.87;97664.75;5030550;28;20021;-75
2024/01/06 05:30:56;;;;;;;4.85;2.58;;;;;;;5.06;88.17;97667.81;5026942;28;20037;-75
2024/01/06 05:33:21;;;;;;;4.60;3.63;;;;;;;5.00;88.54;97666.13;5027744;28;20029;-75
2024/01/06 05:35:46;;;;;;;4.85;3.63;;;;;;;4.57;88.74;97675.50;5025634;28;20474;-74
2024/01/06 05:38:12;;;;;;;4.85;2.35;;;;;;;4.88;89.73;97678.63;5023434;28;20048;-75
2024/01/06 05:40:37;;;;;;;4.10;2.97;;;;;;;4.85;89.30;97679.13;5024455;28;20039;-75
2024/01/06 05:43:02;;;;;;;7.57;3.22;;;;;;;4.56;89.86;97684.44;5029700;28;20033;-75
2024/01/06 05:45:28;;;;;;;5.72;2.85;;;;;;;4.67;90.44;97685.44;5027663;28;20033;-75
2024/01/06 05:47:53;;;;;;;6.88;3.78;;;;;;;5.09;90.27;97678.69;5022106;28;20079;-75
2024/01/06 05:50:19;;;;;;;2.88;2.58;;;;;;;5.32;88.62;97678.50;5022938;28;20071;-75
2024/01/06 05:52:47;;;;;;;9.25;3.85;;;;;;;4.63;88.70;97684.28;5023615;28;20068;-76
2024/01/06 05:55:12;;;;;;;5.22;3.63;;;;;;;4.38;89.99;97692.59;5025158;28;20044;-76
2024/01/06 05:57:38;;;;;;;8.30;2.97;;;;;;;5.32;89.00;97698.88;5022374;28;20041;-75
2024/01/06 06:00:07;;;;;;;6.25;3.00;;;;;;;5.32;88.23;97688.28;5025626;28;20116;-75
2024/01/06 06:02:33;;;;;;;4.07;2.80;;;;;;;5.31;88.70;97705.19;5026762;28;20041;-76
2024/01/06 06:04:58;;;;;;;5.05;2.75;;;;;;;5.61;87.28;97694.25;5023553;28;20029;-76
2024/01/06 06:07:23;;;;;;;2.85;2.10;;;;;;;5.30;87.52;97706.25;5026773;28;20029;-76
2024/01/06 06:09:49;;;;;;;8.10;3.97;;;;;;;4.85;88.16;97710.84;5024797;28;20064;-76
2024/01/06 06:12:14;;;;;;;8.10;2.90;;;;;;;4.90;89.66;97710.91;5025908;28;20032;-76
2024/01/06 06:14:39;;;;;;;3.90;3.00;;;;;;;5.27;89.17;97706.72;5029487;28;20068;-76
2024/01/06 06:17:06;;;;;;;4.32;3.20;;;;;;;5.15;89.15;97713.97;5028961;28;20040;-75
2024/01/06 06:19:31;;;;;;;5.95;3.28;;;;;;;4.72;89.24;97714.56;5043203;28;20355;-76
2024/01/06 06:21:57;;;;;;;3.72;2.90;;;;;;;4.82;90.86;97711.31;5027402;28;20108;-76
2024/01/06 06:24:22;;;;;;;5.00;2.88;;;;;;;5.09;89.44;97714.91;5023408;28;20402;-76
2024/01/06 06:26:47;;;;;;;4.32;2.53;;;;;;;4.80;90.27;97716.84;5029545;28;20071;-77
2024/01/06 06:29:13;;;;;;;4.38;2.60;;;;;;;5.07;90.35;97711.69;5032465;28;20025;-78
2024/01/06 06:31:38;;;;;;;3.42;2.35;;;;;;;5.38;89.62;97727.00;5030212;28;20026;-77
2024/01/06 06:34:04;;;;;;;4.70;3.03;;;;;;;5.34;88.39;97717.94;5030197;28;20506;-77
2024/01/06 06:36:29;;;;;;;7.63;3.03;;;;;;;5.35;88.71;97730.16;5031214;28;20040;-76
2024/01/06 06:38:55;;;;;;;3.60;2.85;;;;;;;5.67;87.28;97739.06;5026692;28;20034;-77
2024/01/06 06:41:20;;;;;;;3.35;2.92;;;;;;;5.75;87.40;97740.47;5024428;28;20033;-75
2024/01/06 06:43:45;;;;;;;4.18;2.88;;;;;;;5.76;86.57;97742.09;5027405;28;20470;-75
2024/01/06 06:46:11;;;;;;;2.90;2.53;;;;;;;5.74;86.49;97749.47;5029851;28;20036;-76
2024/01/06 06:48:36;;;;;;;3.92;2.90;;;;;;;5.61;87.20;97750.63;5026804;28;20040;-77
2024/01/06 06:51:02;;;;;;;4.55;2.97;;;;;;;5.56;87.01;97758.50;5028451;28;20402;-76
2024/01/06 06:53:27;;;;;;;5.03;3.72;;;;;;;5.29;87.49;97752.25;5023453;28;20519;-78
2024/01/06 06:55:53;;;;;;;9.80;4.30;;;;;;;4.73;89.42;97750.53;5030006;28;20048;-77
2024/01/06 06:58:18;;;;;;;6.47;4.00;;;;;;;4.56;91.06;97769.00;5025369;28;20037;-77
2024/01/06 07:00:44;;;;;;;6.68;4.63;;;;;;;4.39;91.28;97767.38;5026981;28;20030;-75
2024/01/06 07:03:09;;;;;;;7.03;3.63;;;;;;;5.10;90.82;97764.13;5025678;28;20445;-76
2024/01/06 07:05:34;;;;;;;4.03;3.40;;;;;;;5.26;89.21;97771.28;5022644;28;20041;-76
2024/01/06 07:08:00;;;;;;;8.98;4.90;;;;;;;4.68;90.67;97781.34;5026358;28;20021;-74
2024/01/06 07:10:26;;;;;;;4.00;3.33;;;;;;;4.76;91.24;97783.63;5028156;28;20032;-74
2024/01/06 07:12:52;;;;;;;8.02;4.28;;;;;;;4.89;91.35;97785.97;5030297;28;20033;-74
2024/01/06 07:15:17;;;;;;;5.97;4.03;;;;;;;5.06;90.51;97779.69;5024809;28;20032;-75
2024/01/06 07:17:42;;;;;;;7.50;3.88;;;;;;;5.23;90.23;97783.13;5021114;28;20079;-75
2024/01/06 07:20:08;;;;;;;7.20;3.97;;;;;;;5.33;89.33;97788.56;5026136;28;20103;-75
2024/01/06 07:22:37;;;;;;;8.10;3.92;;;;;;;5.32;88.83;97788.81;5021111;28;20121;-75
2024/01/06 07:25:02;;;;;;;6.70;4.10;;;;;;;5.34;89.39;97781.44;5026388;28;20021;-75
2024/01/06 07:27:28;;;;;;;6.05;4.15;;;;;;;5.30;88.98;97794.38;5027528;28;20124;-74
2024/01/06 07:29:55;;;;;;;8.73;4.55;;;;;;;5.31;88.74;97797.78;5018152;28;20033;-74
2024/01/06 07:32:21;;;;;;;5.72;4.43;;;;;;;5.32;89.05;97804.69;5022969;28;20033;-74
2024/01/06 07:34:46;;;;;;;4.38;3.42;;;;;;;5.30;88.89;97810.22;5024597;28;20071;-74
2024/01/06 07:37:12;;;;;;;7.63;3.63;;;;;;;5.27;89.85;97813.34;5027318;28;20026;-74
2024/01/06 07:39:37;;;;;;;5.90;3.63;;;;;;;5.21;89.17;97813.50;5026087;28;20087;-74
2024/01/06 07:42:03;;;;;;;9.70;4.20;;;;;;;5.20;89.93;97820.63;5025971;28;20064;-74
2024/01/06 07:44:28;;;;;;;18.77;7.32;;;;;;;5.21;89.64;97819.59;5026225;28;20555;-74
2024/01/06 07:46:53;;;;;;;9.15;5.82;;;;;;;5.30;88.80;97830.59;5024737;28;20034;-74
2024/01/06 07:49:19;;;;;;;10.18;5.20;;;;;;;5.30;88.80;97827.94;5024474;28;20037;-74
2024/01/06 07:51:44;;;;;;;7.93;5.13;;;;;;;5.25;88.89;97825.19;5019856;28;20082;-73
2024/01/06 07:54:11;;;;;;;8.23;5.22;;;;;;;5.23;88.97;97832.56;5026613;28;20505;-74
2024/01/06 07:56:37;;;;;;;9.93;5.00;;;;;;;5.32;88.60;97841.72;5023585;28;20649;-74
2024/01/06 07:59:02;;;;;;;8.25;4.78;;;;;;;5.29;88.24;97844.84;5025610;28;20037;-75
2024/01/06 08:01:27;;;;;;;10.40;4.95;;;;;;;5.28;89.33;97851.19;5019194;28;20334;-75
2024/01/06 08:03:53;;;;;;;10.02;5.15;;;;;;;5.33;89.37;97853.91;5026763;28;20057;-73
2024/01/06 08:06:18;;;;;;;8.57;4.78;;;;;;;5.33;88.89;97853.91;5030404;28;20036;-74
2024/01/06 08:08:45;;;;;;;8.13;4.35;;;;;;;5.31;88.91;97858.63;5026142;28;20037;-74
2024/01/06 08:11:11;;;;;;;7.63;4.30;;;;;;;5.33;88.81;97851.25;5026430;28;20095;-74
2024/01/06 08:13:36;;;;;;;8.23;4.03;;;;;;;5.28;89.39;97854.66;5029658;28;20021;-76
2024/01/06 08:16:02;;;;;;;6.53;4.75;;;;;;;5.32;88.84;97863.72;5026309;28;20032;-74
2024/01/06 08:18:27;;;;;;;5.55;4.50;;;;;;;5.31;89.20;97874.50;5024506;28;20025;-74
2024/01/06 08:20:53;;;;;;;8.75;4.82;;;;;;;5.34;88.35;97874.03;5027111;28;20030;-75
2024/01/06 08:23:20;;;;;;;9.02;4.93;;;;;;;5.23;88.73;97872.25;5024652;28;20038;-75
2024/01/06 08:25:46;;;;;;;7.70;4.93;;;;;;;5.22;89.94;97878.59;5023372;28;20104;-75
2024/01/06 08:28:11;;;;;;;8.93;5.00;;;;;;;5.31;89.40;97877.97;5025876;28;20121;-74
2024/01/06 08:30:37;;;;;;;8.85;5.78;;;;;;;5.35;89.32;97878.31;5031555;28;20037;-75
2024/01/06 08:33:02;;;;;;;11.13;6.00;;;;;;;5.35;88.59;97880.94;5024573;28;20072;-75
2024/01/06 08:35:27;;;;;;;10.15;6.68;;;;;;;5.34;88.48;97889.91;5030003;28;20037;-74
2024/01/06 08:37:53;;;;;;;14.07;7.90;;;;;;;5.47;89.10;97896.75;5026255;28;20064;-75
2024/01/06 08:40:18;;;;;;;13.38;6.95;;;;;;;5.41;88.77;97903.00;5029586;28;20120;-74
2024/01/06 08:42:44;;;;;;;17.10;6.30;;;;;;;5.35;89.42;97902.13;5031237;28;20040;-75
2024/01/06 08:45:09;;;;;;;11.90;5.97;;;;;;;5.37;88.98;97902.69;5024407;28;20033;-74
2024/01/06 08:47:34;;;;;;;10.85;6.85;;;;;;;5.39;89.13;97913.81;5028315;28;20104;-74
2024/01/06 08:50:00;;;;;;;11.45;6.07;;;;;;;5.35;89.28;97915.34;5030123;28;20052;-75
2024/01/06 08:52:25;;;;;;;10.68;5.80;;;;;;;5.37;89.14;97913.25;5029917;28;20110;-75
2024/01/06 08:54:50;;;;;;;14.35;6.57;;;;;;;5.30;88.29;97918.69;5032837;28;20397;-74
2024/01/06 08:57:16;;;;;;;6.55;5.03;;;;;;;5.33;88.63;97928.78;5030210;28;20021;-74
2024/01/06 08:59:41;;;;;;;13.85;5.30;;;;;;;5.45;88.92;97926.09;5031824;28;20036;-74
2024/01/06 09:02:07;;;;;;;10.00;5.70;;;;;;;5.47;87.79;97929.31;5031449;28;20045;-74
2024/01/06 09:04:33;;;;;;;12.90;5.57;;;;;;;5.51;88.19;97937.56;5033618;28;20104;-74
2024/01/06 09:06:58;;;;;;;11.63;5.93;;;;;;;5.48;87.92;97930.13;5031003;28;20033;-74
2024/01/06 09:09:24;;;;;;;13.32;5.40;;;;;;;5.47;88.43;97939.88;5029830;28;20083;-74
2024/01/06 09:11:49;;;;;;;7.78;4.90;;;;;;;5.51;88.12;97943.66;5031992;28;20032;-74
2024/01/06 09:14:17;;;;;;;16.83;5.00;;;;;;;5.49;88.07;97942.28;5031279;28;20120;-75
2024/01/06 09:16:42;;;;;;;6.38;4.28;;;;;;;5.57;88.10;97939.28;5027817;28;20038;-75
2024/01/06 09:19:07;;;;;;;10.98;5.63;;;;;;;5.56;88.33;97948.25;5030008;28;20121;-74
2024/01/06 09:21:33;;;;;;;20.15;10.52;;;;;;;5.65;87.99;97949.47;5030523;28;20124;-74
2024/01/06 09:23:58;;;;;;;24.75;15.02;;;;;;;5.68;86.95;97955.06;5027994;28;20041;-75
2024/01/06 09:26:24;;;;;;;19.98;11.57;;;;;;;5.56;88.35;97967.56;5032786;28;20133;-75
2024/01/06 09:28:50;;;;;;;19.63;11.90;;;;;;;5.64;87.78;97974.31;5030287;28;20030;-75
2024/01/06 09:31:15;;;;;;;22.48;12.13;;;;;;;5.59;88.13;97971.59;5031402;28;20044;-76
2024/01/06 09:33:40;;;;;;;24.98;13.73;;;;;;;5.60;87.76;97966.06;5028622;28;20038;-75
2024/01/06 09:36:08;;;;;;;23.85;13.95;;;;;;;5.60;86.87;97975.84;5030317;28;20125;-75
2024/01/06 09:38:33;;;;;;;19.60;11.75;;;;;;;5.54;87.96;97972.31;5029775;28;20021;-75
2024/01/06 09:40:59;;;;;;;17.10;10.38;;;;;;;5.57;88.17;97973.69;5029325;28;20075;-74
2024/01/06 09:43:25;;;;;;;20.67;11.52;;;;;;;5.64;88.20;97984.91;5030257;28;20454;-75
2024/01/06 09:46:11;;;;;;;22.02;12.27;;;;;;;5.62;87.94;97981.69;5029638;28;20036;-75
2024/01/06 09:48:43;;;;;;;18.58;10.25;;;;;;;5.70;87.33;97976.81;5026900;28;20432;-75
2024/01/06 09:51:11;;;;;;;14.18;8.68;;;;;;;5.62;87.61;97985.16;5029294;28;20256;-74
2024/01/06 09:53:58;;;;;;;22.35;10.57;;;;;;;5.60;87.96;97976.66;5028571;28;20030;-75
2024/01/06 09:56:26;;;;;;;19.83;9.65;;;;;;;5.66;87.61;97982.81;5030086;28;20038;-74
2024/01/06 09:58:51;;;;;;;14.43;7.70;;;;;;;5.67;87.39;97987.91;5028938;28;20075;-75
2024/01/06 10:01:18;;;;;;;14.20;8.57;;;;;;;5.63;87.34;97992.06;5029419;28;20033;-75
2024/01/06 10:03:43;;;;;;;14.60;7.97;;;;;;;5.67;87.75;97987.91;5028546;28;20068;-74
2024/01/06 10:06:09;;;;;;;12.38;6.85;;;;;;;5.71;87.74;97989.03;5031346;28;20065;-75
2024/01/06 10:08:35;;;;;;;13.13;6.05;;;;;;;5.69;86.87;97991.09;5026300;28;20083;-74
2024/01/06 10:11:00;;;;;;;12.02;6.97;;;;;;;5.72;87.35;97995.91;5027059;28;20033;-74
2024/01/06 10:13:27;;;;;;;15.32;7.03;;;;;;;5.69;87.55;97996.41;5030177;28;20121;-74
2024/01/06 10:15:53;;;;;;;11.93;6.90;;;;;;;5.65;87.36;97999.75;5029955;28;20037;-74
2024/01/06 10:18:19;;;;;;;14.45;7.35;;;;;;;5.62;87.71;98001.03;5028732;28;20482;-74
2024/01/06 10:20:47;;;;;;;17.33;8.57;;;;;;;5.66;87.73;97998.69;5028035;28;20049;-74
2024/01/06 10:23:13;;;;;;;10.30;6.13;;;;;;;5.61;87.83;97983.56;5030338;28;20425;-74
2024/01/06 10:25:39;;;;;;;12.85;7.35;;;;;;;5.63;88.13;97997.34;5028085;28;20039;-74
2024/01/06 10:28:04;;;;;;;9.30;6.05;;;;;;;5.67;87.77;98003.78;5022970;28;20025;-74
2024/01/06 10:30:30;;;;;;;9.85;6.10;;;;;;;5.64;88.24;98011.38;5030080;28;20043;-74
2024/01/06 10:32:55;;;;;;;9.23;6.40;;;;;;;5.69;87.74;98012.28;5030334;28;20029;-74
2024/01/06 10:35:20;;;;;;;10.73;6.43;;;;;;;5.73;87.61;98008.13;5026785;28;20026;-74
2024/01/06 10:37:48;;;;;;;10.02;5.97;;;;;;;5.78;88.02;98008.22;5026212;28;20462;-74
2024/01/06 10:40:18;;;;;;;12.77;6.00;;;;;;;5.80;87.71;98003.47;5028579;28;20385;-74
2024/01/06 10:42:45;;;;;;;11.52;6.15;;;;;;;5.75;87.45;97999.94;5024281;28;20056;-74
2024/01/06 10:45:14;;;;;;;11.35;6.05;;;;;;;5.72;88.23;97998.56;5029730;28;20025;-74
2024/01/06 10:47:42;;;;;;;9.80;5.05;;;;;;;5.76;87.64;97997.06;5030685;28;20033;-74
2024/01/06 10:50:08;;;;;;;10.10;5.65;;;;;;;5.89;87.29;97996.78;5028521;28;20496;-74
2024/01/06 10:52:37;;;;;;;7.55;5.20;;;;;;;5.79;87.64;97988.63;5031453;28;20033;-74
2024/01/06 10:55:04;;;;;;;9.80;5.65;;;;;;;5.82;87.16;97987.34;5031002;28;20664;-74
2024/01/06 10:57:33;;;;;;;7.57;5.20;;;;;;;5.91;86.57;97999.19;5024453;28;20040;-74
2024/01/06 10:59:59;;;;;;;8.15;5.25;;;;;;;5.96;87.50;98010.66;5026129;28;20456;-74
2024/01/06 11:02:26;;;;;;;6.88;4.95;;;;;;;5.95;86.79;98008.25;5028786;28;20425;-74
2024/01/06 11:04:51;;;;;;;17.83;8.55;;;;;;;5.79;87.14;98015.09;5022878;28;20032;-74
2024/01/06 11:07:20;;;;;;;14.30;6.85;;;;;;;5.78;88.65;98010.88;5028550;28;20026;-74
2024/01/06 11:10:02;;;;;;;14.10;7.65;;;;;;;5.86;88.04;98021.09;5026071;28;20399;-75
2024/01/06 11:12:28;;;;;;;9.88;6.47;;;;;;;5.60;89.17;98011.06;5026730;28;20474;-74
2024/01/06 11:14:54;;;;;;;16.83;8.00;;;;;;;5.71;88.15;98012.03;5026089;28;20037;-74
2024/01/06 11:17:55;;;;;;;13.65;7.03;;;;;;;5.79;89.15;98012.44;5029536;28;20029;-74
2024/01/06 11:20:22;;;;;;;13.65;6.88;;;;;;;5.51;89.17;98015.13;5027957;28;20052;-74
2024/01/06 11:22:48;;;;;;;7.80;5.50;;;;;;;5.58;89.38;98010.50;5029306;28;20029;-74
2024/01/06 11:25:16;;;;;;;15.52;7.20;;;;;;;5.64;89.34;98009.53;5026991;28;20064;-74
2024/01/06 11:27:45;;;;;;;13.23;7.43;;;;;;;5.78;88.46;98013.50;5026988;28;20490;-74
2024/01/06 11:30:20;;;;;;;14.65;6.97;;;;;;;5.58;89.31;98013.13;5039196;28;20083;-74
2024/01/06 11:32:46;;;;;;;10.60;6.18;;;;;;;5.46;88.69;98011.59;5027612;28;21738;-74